Terminal Aerodrome Forecast
Issued by NWS

Home | Current Version | Previous Version | Text Only | Print | Product List | Glossary On
Versions: 1 2 3 4 5 6 7 8 9 10 11 12 13 14 15 16 17 18 19 20 21 22 23 24 25 26 27 28 29 30 31 32 33 34
000
FTUS41 KBOX 261129
TAFACK
TAF
KACK 261129Z 2612/2712 06011KT P6SM SCT020
     FM261300 06013KT P6SM OVC020
     FM261500 07018KT 4SM -SHSN OVC020
     FM261900 06019G28KT 3SM -SHSN OVC015
     FM262000 06020G30KT 2SM -SHSN OVC015
     FM262300 06026G39KT 1SM -SN OVC015
     FM270100 05029G46KT 1SM -SN OVC010
     FM270300 04033G51KT 1/2SM SN OVC010=

USA.gov is the U.S. government's official web portal to all federal, state and local government web resources and services.